ěÝzenÝ letovÚho provozu ╚eskÚ republiky
Letiste: LKMT Aktualizace: 27.02.2020 03:00:26  UTC
 METAR LKMT 27.02. 03:00 ...
METAR LKMT 270300Z 20008KT 9999 FEW046 01/M02 Q1002 NOSIG RMK REG QNH 1001=
 TAF LKMT 26.02. 23:00 ...
TAF LKMT 262300Z 2700/2806 23008KT 9999 SCT033      PROB40 TEMPO 2709/2716 27018KT 8000 SHRA SCT027TCU      BECMG 2716/2718 17008KT      BECMG 2723/2801 01010KT 6000 -SN BKN015      TEMPO 2801/2806 2500 SN OVC007=